Flight Track Log - Related Links

Times and Time Zones

All times are in EDT time to prevent confusion due to time zone crossing. See the N680AN flight status page for this flight to view local times or setup timezone preferences in your user account.

Time Position Orientation Groundspeed Altitude Reporting Facility
EDT Latitude Longitude Course Direction KTS MPH feet Rate Location/Type
Sat 04:39:29 PM 25.7975 -80.3022 North 179 206 800  Level Miami Center
Sat 04:40:12 PM 25.8031 -80.3322 282° West 159 183 2,600 2,712 Climbing Miami Center
Sat 04:41:00 PM 25.9487 -80.3329 343° North  Level FlightAware Approximate
Sat 04:41:13 PM 25.8264 -80.4022 290° West 246 283 5,500  Level Miami Center
Sat 04:42:00 PM 26.0300 -80.3653 340° North  Level FlightAware Approximate
Sat 04:42:21 PM 25.9094 -80.4256 346° North 259 298 9,300  Level Miami Center
Sat 04:43:00 PM 26.1127 -80.3931 343° North  Level FlightAware Approximate
Sat 04:43:21 PM 25.9908 -80.4325 356° North 264 304 11,600  Level Miami Center
Sat 04:44:00 PM 26.1960 -80.4167 North  Level FlightAware Approximate
Sat 04:44:21 PM 26.0869 -80.4283 North 306 352 14,500  Level Miami Center
Sat 04:45:21 PM 26.1872 -80.4267 North 335 386 16,400 1,250 Climbing Miami Center
Sat 04:46:21 PM 26.2764 -80.4481 348° North 352 405 17,000 300 Climbing Miami Center
Sat 04:47:21 PM 26.3842 -80.4883 341° North 359 413 17,000  Level Miami Center
Sat 04:48:21 PM 26.4708 -80.5236 340° North 364 419 17,000  Level Miami Center
Sat 04:49:21 PM 26.5764 -80.5664 340° North 370 426 17,000  Level Miami Center
Sat 04:50:21 PM 26.6653 -80.6017 340° North 370 426 17,000  Level Miami Center
Sat 04:51:21 PM 26.7686 -80.6422 341° North 365 420 17,000  Level Miami Center
Sat 04:52:21 PM 26.8658 -80.6778 342° North 371 427 17,000  Level Miami Center
Sat 04:53:21 PM 26.9525 -80.7133 340° North 371 427 17,000  Level Miami Center
Sat 04:54:21 PM 27.0622 -80.7567 341° North 365 420 17,000  Level Miami Center
Sat 04:55:21 PM 27.1572 -80.7947 340° North 365 420 17,000  Level Miami Center
Sat 04:56:21 PM 27.2522 -80.8331 340° North 365 420 17,000  Level Miami Center
Sat 04:57:21 PM 27.3469 -80.8739 339° North 365 420 17,000  Level Miami Center
Sat 04:58:21 PM 27.4419 -80.9097 341° North 365 420 17,000  Level Miami Center
Sat 04:59:21 PM 27.5369 -80.9483 340° North 365 420 17,000  Level Miami Center
Sat 05:00:21 PM 27.6339 -80.9869 341° North 365 420 17,000 -500 Level Miami Center
Sat 05:01:21 PM 27.7247 -81.0231 341° North 365 420 16,000 -1,500 Descending Miami Center
Sat 05:02:21 PM 27.8197 -81.0617 340° North 359 413 14,000 -1,875 Descending Miami Center
Sat 05:04:01 PM 27.9667 -81.1167 342° North 315 362 11,000 -1,118 Descending Orlando TRACON
Sat 05:05:02 PM 28.0500 -81.1500 341° North 287 330 11,000 -300 Level Orlando TRACON
Sat 05:06:01 PM 28.1167 -81.1667 348° North 279 321 10,400 -947 Descending Orlando TRACON
Sat 05:06:56 PM 28.1833 -81.1833 348° North 279 321 9,200 -730 Descending Orlando TRACON
Sat 05:07:56 PM 28.2667 -81.1833 360° North 274 315 9,000 -100 Descending Orlando TRACON
Sat 05:08:56 PM 28.3333 -81.1833 360° North 277 319 9,000 -200 Level Orlando TRACON
Sat 05:09:56 PM 28.4167 -81.1833 360° North 250 288 8,600 -810 Descending Orlando TRACON
Sat 05:11:02 PM 28.4833 -81.1833 360° North 238 274 7,300 -1,600 Descending Orlando TRACON
Sat 05:11:56 PM 28.5500 -81.1833 360° North 239 275 5,400 -2,111 Descending Orlando TRACON

Login

Don't have an account? Register now (free) for customized features, flight alerts, and more!